sensor_id;sensor_type;location;lat;lon;timestamp;temperature;humidity
19033;DHT22;9649;51.042;13.804;2023-06-19T00:02:16;18.50;99.80
19033;DHT22;9649;51.042;13.804;2023-06-19T00:07:19;18.40;99.90
19033;DHT22;9649;51.042;13.804;2023-06-19T00:12:23;18.20;1.00
19033;DHT22;9649;51.042;13.804;2023-06-19T00:17:27;18.10;1.00
19033;DHT22;9649;51.042;13.804;2023-06-19T00:22:30;17.90;1.00
19033;DHT22;9649;51.042;13.804;2023-06-19T00:27:33;17.80;1.00
19033;DHT22;9649;51.042;13.804;2023-06-19T00:32:37;17.80;1.00
19033;DHT22;9649;51.042;13.804;2023-06-19T00:37:48;17.70;1.00
19033;DHT22;9649;51.042;13.804;2023-06-19T00:42:51;17.60;1.00
19033;DHT22;9649;51.042;13.804;2023-06-19T00:47:56;17.60;1.00
19033;DHT22;9649;51.042;13.804;2023-06-19T00:53:00;17.80;1.00
19033;DHT22;9649;51.042;13.804;2023-06-19T00:58:06;17.80;1.00
19033;DHT22;9649;51.042;13.804;2023-06-19T01:03:10;17.90;1.00
19033;DHT22;9649;51.042;13.804;2023-06-19T01:08:18;17.90;1.00
19033;DHT22;9649;51.042;13.804;2023-06-19T01:13:30;17.70;1.00
19033;DHT22;9649;51.042;13.804;2023-06-19T01:18:36;17.70;1.00
19033;DHT22;9649;51.042;13.804;2023-06-19T01:23:41;17.70;1.00
19033;DHT22;9649;51.042;13.804;2023-06-19T01:28:44;17.50;1.00
19033;DHT22;9649;51.042;13.804;2023-06-19T01:33:50;17.20;1.00
19033;DHT22;9649;51.042;13.804;2023-06-19T01:38:57;17.30;1.00
19033;DHT22;9649;51.042;13.804;2023-06-19T01:44:01;17.10;1.00
19033;DHT22;9649;51.042;13.804;2023-06-19T01:49:06;17.10;1.00
19033;DHT22;9649;51.042;13.804;2023-06-19T01:54:11;17.10;1.00
19033;DHT22;9649;51.042;13.804;2023-06-19T01:59:14;17.30;1.00
19033;DHT22;9649;51.042;13.804;2023-06-19T02:04:17;17.10;1.00
19033;DHT22;9649;51.042;13.804;2023-06-19T02:09:21;17.10;1.00
19033;DHT22;9649;51.042;13.804;2023-06-19T02:14:24;17.10;1.00
19033;DHT22;9649;51.042;13.804;2023-06-19T02:19:26;16.90;1.00
19033;DHT22;9649;51.042;13.804;2023-06-19T02:24:30;16.90;1.00
19033;DHT22;9649;51.042;13.804;2023-06-19T02:29:33;16.80;1.00
19033;DHT22;9649;51.042;13.804;2023-06-19T02:34:36;16.80;1.00
19033;DHT22;9649;51.042;13.804;2023-06-19T02:39:40;16.60;1.00
19033;DHT22;9649;51.042;13.804;2023-06-19T02:44:43;16.70;1.00
19033;DHT22;9649;51.042;13.804;2023-06-19T02:49:47;16.70;1.00
19033;DHT22;9649;51.042;13.804;2023-06-19T02:54:51;16.70;1.00
19033;DHT22;9649;51.042;13.804;2023-06-19T02:59:54;16.60;1.00
19033;DHT22;9649;51.042;13.804;2023-06-19T03:04:56;16.60;1.00
19033;DHT22;9649;51.042;13.804;2023-06-19T03:10:00;16.80;1.00
19033;DHT22;9649;51.042;13.804;2023-06-19T03:15:04;17.00;1.00
19033;DHT22;9649;51.042;13.804;2023-06-19T03:20:07;17.10;1.00
19033;DHT22;9649;51.042;13.804;2023-06-19T03:25:15;17.20;1.00
19033;DHT22;9649;51.042;13.804;2023-06-19T03:30:17;17.20;1.00
19033;DHT22;9649;51.042;13.804;2023-06-19T03:35:20;17.30;1.00
19033;DHT22;9649;51.042;13.804;2023-06-19T03:40:24;17.30;1.00
19033;DHT22;9649;51.042;13.804;2023-06-19T03:45:28;17.50;1.00
19033;DHT22;9649;51.042;13.804;2023-06-19T03:50:31;17.60;1.00
19033;DHT22;9649;51.042;13.804;2023-06-19T03:55:36;17.60;1.00
19033;DHT22;9649;51.042;13.804;2023-06-19T04:00:38;17.80;1.00
19033;DHT22;9649;51.042;13.804;2023-06-19T04:05:42;17.80;1.00
19033;DHT22;9649;51.042;13.804;2023-06-19T04:10:47;17.80;1.00
19033;DHT22;9649;51.042;13.804;2023-06-19T04:15:49;17.90;1.00
19033;DHT22;9649;51.042;13.804;2023-06-19T04:20:52;18.10;99.90
19033;DHT22;9649;51.042;13.804;2023-06-19T04:25:56;18.60;1.00
19033;DHT22;9649;51.042;13.804;2023-06-19T04:30:59;18.80;1.00
19033;DHT22;9649;51.042;13.804;2023-06-19T04:36:02;19.10;1.00
19033;DHT22;9649;51.042;13.804;2023-06-19T04:41:06;19.50;1.00
19033;DHT22;9649;51.042;13.804;2023-06-19T04:46:09;20.00;1.00
19033;DHT22;9649;51.042;13.804;2023-06-19T04:51:12;19.90;1.00
19033;DHT22;9649;51.042;13.804;2023-06-19T04:56:16;19.90;68.60
19033;DHT22;9649;51.042;13.804;2023-06-19T05:01:19;20.20;1.00
19033;DHT22;9649;51.042;13.804;2023-06-19T05:06:29;20.60;1.00
19033;DHT22;9649;51.042;13.804;2023-06-19T05:11:33;20.70;1.00
19033;DHT22;9649;51.042;13.804;2023-06-19T05:16:35;20.80;1.00
19033;DHT22;9649;51.042;13.804;2023-06-19T05:21:38;20.90;99.90
19033;DHT22;9649;51.042;13.804;2023-06-19T05:26:42;21.20;1.00
19033;DHT22;9649;51.042;13.804;2023-06-19T05:31:45;21.50;1.00
19033;DHT22;9649;51.042;13.804;2023-06-19T05:36:48;21.70;99.90
19033;DHT22;9649;51.042;13.804;2023-06-19T05:41:52;21.90;99.90
19033;DHT22;9649;51.042;13.804;2023-06-19T05:46:55;22.00;1.00
19033;DHT22;9649;51.042;13.804;2023-06-19T05:51:57;22.20;1.00
19033;DHT22;9649;51.042;13.804;2023-06-19T05:57:02;22.20;1.00
19033;DHT22;9649;51.042;13.804;2023-06-19T06:02:05;22.20;34.70
19033;DHT22;9649;51.042;13.804;2023-06-19T06:07:09;22.20;1.00
19033;DHT22;9649;51.042;13.804;2023-06-19T06:12:13;22.30;1.00
19033;DHT22;9649;51.042;13.804;2023-06-19T06:17:16;22.30;1.00
19033;DHT22;9649;51.042;13.804;2023-06-19T06:22:19;22.40;99.90
19033;DHT22;9649;51.042;13.804;2023-06-19T06:27:23;22.80;1.00
19033;DHT22;9649;51.042;13.804;2023-06-19T06:32:26;23.10;1.00
19033;DHT22;9649;51.042;13.804;2023-06-19T06:37:30;23.50;1.00
19033;DHT22;9649;51.042;13.804;2023-06-19T06:42:34;23.80;99.90
19033;DHT22;9649;51.042;13.804;2023-06-19T06:47:37;24.00;1.00
19033;DHT22;9649;51.042;13.804;2023-06-19T06:52:41;24.00;99.90
19033;DHT22;9649;51.042;13.804;2023-06-19T06:57:45;23.50;99.90
19033;DHT22;9649;51.042;13.804;2023-06-19T07:02:48;23.40;99.90
19033;DHT22;9649;51.042;13.804;2023-06-19T07:07:52;23.70;99.90
19033;DHT22;9649;51.042;13.804;2023-06-19T07:12:56;23.60;99.90
19033;DHT22;9649;51.042;13.804;2023-06-19T07:17:59;23.90;99.90
19033;DHT22;9649;51.042;13.804;2023-06-19T07:23:02;24.00;99.90
19033;DHT22;9649;51.042;13.804;2023-06-19T07:28:06;24.30;12.30
19033;DHT22;9649;51.042;13.804;2023-06-19T07:33:08;24.50;1.00
19033;DHT22;9649;51.042;13.804;2023-06-19T07:38:11;24.70;1.00
19033;DHT22;9649;51.042;13.804;2023-06-19T07:43:15;24.90;1.00
19033;DHT22;9649;51.042;13.804;2023-06-19T07:48:18;25.00;1.00
19033;DHT22;9649;51.042;13.804;2023-06-19T07:53:22;25.40;1.00
19033;DHT22;9649;51.042;13.804;2023-06-19T07:58:26;25.50;1.00
19033;DHT22;9649;51.042;13.804;2023-06-19T08:03:28;26.10;1.00
19033;DHT22;9649;51.042;13.804;2023-06-19T08:08:32;26.30;1.00
19033;DHT22;9649;51.042;13.804;2023-06-19T08:13:36;26.40;1.00
19033;DHT22;9649;51.042;13.804;2023-06-19T08:18:39;26.60;1.00
19033;DHT22;9649;51.042;13.804;2023-06-19T08:23:42;26.90;1.00
19033;DHT22;9649;51.042;13.804;2023-06-19T08:28:46;27.10;1.00
19033;DHT22;9649;51.042;13.804;2023-06-19T08:33:49;26.60;1.00
19033;DHT22;9649;51.042;13.804;2023-06-19T08:38:55;26.40;1.00
19033;DHT22;9649;51.042;13.804;2023-06-19T08:43:59;26.00;1.00
19033;DHT22;9649;51.042;13.804;2023-06-19T08:49:02;25.20;1.00
19033;DHT22;9649;51.042;13.804;2023-06-19T08:54:06;24.90;1.00
19033;DHT22;9649;51.042;13.804;2023-06-19T08:59:12;24.50;99.50
19033;DHT22;9649;51.042;13.804;2023-06-19T09:04:15;23.90;1.00
19033;DHT22;9649;51.042;13.804;2023-06-19T09:09:19;24.00;1.00
19033;DHT22;9649;51.042;13.804;2023-06-19T09:14:31;24.50;99.90
19033;DHT22;9649;51.042;13.804;2023-06-19T09:19:34;24.90;99.90
19033;DHT22;9649;51.042;13.804;2023-06-19T09:24:38;25.10;26.10
19033;DHT22;9649;51.042;13.804;2023-06-19T09:29:45;25.30;99.90
19033;DHT22;9649;51.042;13.804;2023-06-19T09:34:50;25.20;99.90
19033;DHT22;9649;51.042;13.804;2023-06-19T09:39:54;25.00;99.90
19033;DHT22;9649;51.042;13.804;2023-06-19T09:45:02;24.90;99.90
19033;DHT22;9649;51.042;13.804;2023-06-19T09:50:07;24.70;99.90
19033;DHT22;9649;51.042;13.804;2023-06-19T09:55:11;24.70;99.90
19033;DHT22;9649;51.042;13.804;2023-06-19T10:00:17;24.60;1.00
19033;DHT22;9649;51.042;13.804;2023-06-19T10:05:31;25.10;99.90
19033;DHT22;9649;51.042;13.804;2023-06-19T10:10:34;25.40;99.90
19033;DHT22;9649;51.042;13.804;2023-06-19T10:15:41;25.30;99.90
19033;DHT22;9649;51.042;13.804;2023-06-19T10:20:46;25.30;99.90
19033;DHT22;9649;51.042;13.804;2023-06-19T10:25:55;25.50;99.90
19033;DHT22;9649;51.042;13.804;2023-06-19T10:31:02;25.30;99.90
19033;DHT22;9649;51.042;13.804;2023-06-19T10:36:13;25.50;99.90
19033;DHT22;9649;51.042;13.804;2023-06-19T10:41:17;25.90;50.30
19033;DHT22;9649;51.042;13.804;2023-06-19T10:46:23;27.10;1.00
19033;DHT22;9649;51.042;13.804;2023-06-19T10:51:26;27.60;1.00
19033;DHT22;9649;51.042;13.804;2023-06-19T10:56:29;29.60;1.00
19033;DHT22;9649;51.042;13.804;2023-06-19T11:01:37;30.80;1.00
19033;DHT22;9649;51.042;13.804;2023-06-19T11:06:41;29.10;1.00
19033;DHT22;9649;51.042;13.804;2023-06-19T11:11:46;29.20;1.00
19033;DHT22;9649;51.042;13.804;2023-06-19T11:16:50;32.50;1.00
19033;DHT22;9649;51.042;13.804;2023-06-19T11:21:53;37.40;99.90
19033;DHT22;9649;51.042;13.804;2023-06-19T11:26:56;38.80;99.90
19033;DHT22;9649;51.042;13.804;2023-06-19T11:32:11;37.50;99.90
19033;DHT22;9649;51.042;13.804;2023-06-19T11:37:16;35.40;99.90
19033;DHT22;9649;51.042;13.804;2023-06-19T11:42:20;38.40;99.90
19033;DHT22;9649;51.042;13.804;2023-06-19T11:47:24;38.40;99.90
19033;DHT22;9649;51.042;13.804;2023-06-19T11:52:27;37.40;99.90
19033;DHT22;9649;51.042;13.804;2023-06-19T11:57:30;37.30;99.90
19033;DHT22;9649;51.042;13.804;2023-06-19T12:02:35;40.50;99.90
19033;DHT22;9649;51.042;13.804;2023-06-19T12:07:38;40.80;99.90
19033;DHT22;9649;51.042;13.804;2023-06-19T12:12:41;40.70;99.90
19033;DHT22;9649;51.042;13.804;2023-06-19T12:17:45;37.20;99.90
19033;DHT22;9649;51.042;13.804;2023-06-19T12:22:48;37.80;99.90
19033;DHT22;9649;51.042;13.804;2023-06-19T12:27:51;36.30;99.90
19033;DHT22;9649;51.042;13.804;2023-06-19T12:32:57;35.80;99.90
19033;DHT22;9649;51.042;13.804;2023-06-19T12:38:01;38.20;99.90
19033;DHT22;9649;51.042;13.804;2023-06-19T12:43:07;37.90;99.90
19033;DHT22;9649;51.042;13.804;2023-06-19T12:48:12;37.80;99.90
19033;DHT22;9649;51.042;13.804;2023-06-19T12:53:15;36.20;99.90
19033;DHT22;9649;51.042;13.804;2023-06-19T12:58:18;34.60;99.90
19033;DHT22;9649;51.042;13.804;2023-06-19T13:03:23;35.00;99.90
19033;DHT22;9649;51.042;13.804;2023-06-19T13:08:28;35.10;99.90
19033;DHT22;9649;51.042;13.804;2023-06-19T13:13:31;35.50;99.90
19033;DHT22;9649;51.042;13.804;2023-06-19T13:18:41;36.10;99.90
19033;DHT22;9649;51.042;13.804;2023-06-19T13:23:44;35.60;99.90
19033;DHT22;9649;51.042;13.804;2023-06-19T13:28:48;35.30;99.90
19033;DHT22;9649;51.042;13.804;2023-06-19T13:33:53;35.30;99.90
19033;DHT22;9649;51.042;13.804;2023-06-19T13:38:59;35.20;99.90
19033;DHT22;9649;51.042;13.804;2023-06-19T13:44:03;35.40;99.90
19033;DHT22;9649;51.042;13.804;2023-06-19T13:49:07;35.60;99.90
19033;DHT22;9649;51.042;13.804;2023-06-19T13:54:10;35.40;99.90
19033;DHT22;9649;51.042;13.804;2023-06-19T13:59:14;35.60;99.90
19033;DHT22;9649;51.042;13.804;2023-06-19T14:04:19;37.40;99.90
19033;DHT22;9649;51.042;13.804;2023-06-19T14:09:25;39.70;99.90
19033;DHT22;9649;51.042;13.804;2023-06-19T14:14:28;38.10;99.90
19033;DHT22;9649;51.042;13.804;2023-06-19T14:19:33;36.10;99.90
19033;DHT22;9649;51.042;13.804;2023-06-19T14:24:36;34.40;99.90
19033;DHT22;9649;51.042;13.804;2023-06-19T14:29:39;33.60;99.90
19033;DHT22;9649;51.042;13.804;2023-06-19T14:34:44;35.30;99.90
19033;DHT22;9649;51.042;13.804;2023-06-19T14:39:47;34.90;99.90
19033;DHT22;9649;51.042;13.804;2023-06-19T14:44:49;35.90;99.90
19033;DHT22;9649;51.042;13.804;2023-06-19T14:49:54;36.70;99.90
19033;DHT22;9649;51.042;13.804;2023-06-19T14:54:56;36.40;99.90
19033;DHT22;9649;51.042;13.804;2023-06-19T15:00:00;35.90;99.90
19033;DHT22;9649;51.042;13.804;2023-06-19T15:05:07;34.50;99.90
19033;DHT22;9649;51.042;13.804;2023-06-19T15:10:10;34.00;99.90
19033;DHT22;9649;51.042;13.804;2023-06-19T15:15:13;34.00;99.90
19033;DHT22;9649;51.042;13.804;2023-06-19T15:20:18;34.70;99.90
19033;DHT22;9649;51.042;13.804;2023-06-19T15:25:22;34.70;99.90
19033;DHT22;9649;51.042;13.804;2023-06-19T15:30:25;33.50;99.90
19033;DHT22;9649;51.042;13.804;2023-06-19T15:35:30;32.90;99.90
19033;DHT22;9649;51.042;13.804;2023-06-19T15:40:32;33.50;99.90
19033;DHT22;9649;51.042;13.804;2023-06-19T15:45:35;33.90;99.90
19033;DHT22;9649;51.042;13.804;2023-06-19T15:50:40;32.90;99.90
19033;DHT22;9649;51.042;13.804;2023-06-19T15:55:43;32.60;99.90
19033;DHT22;9649;51.042;13.804;2023-06-19T16:00:46;32.50;99.90
19033;DHT22;9649;51.042;13.804;2023-06-19T16:05:54;33.60;99.90
19033;DHT22;9649;51.042;13.804;2023-06-19T16:11:10;34.20;99.90
19033;DHT22;9649;51.042;13.804;2023-06-19T16:16:12;33.80;99.90
19033;DHT22;9649;51.042;13.804;2023-06-19T16:21:17;34.30;99.90
19033;DHT22;9649;51.042;13.804;2023-06-19T16:26:20;35.10;99.90
19033;DHT22;9649;51.042;13.804;2023-06-19T16:31:22;35.30;99.90
19033;DHT22;9649;51.042;13.804;2023-06-19T16:36:26;35.80;99.90
19033;DHT22;9649;51.042;13.804;2023-06-19T16:41:29;35.90;99.90
19033;DHT22;9649;51.042;13.804;2023-06-19T16:46:32;36.40;99.90
19033;DHT22;9649;51.042;13.804;2023-06-19T16:51:37;36.90;99.90
19033;DHT22;9649;51.042;13.804;2023-06-19T16:56:40;37.70;99.90
19033;DHT22;9649;51.042;13.804;2023-06-19T17:01:43;37.70;99.90
19033;DHT22;9649;51.042;13.804;2023-06-19T17:06:48;36.90;99.90
19033;DHT22;9649;51.042;13.804;2023-06-19T17:11:51;36.00;99.90
19033;DHT22;9649;51.042;13.804;2023-06-19T17:16:54;35.30;99.90
19033;DHT22;9649;51.042;13.804;2023-06-19T17:21:58;34.60;99.90
19033;DHT22;9649;51.042;13.804;2023-06-19T17:27:01;33.30;99.90
19033;DHT22;9649;51.042;13.804;2023-06-19T17:32:05;32.00;99.90
19033;DHT22;9649;51.042;13.804;2023-06-19T17:37:09;30.90;99.90
19033;DHT22;9649;51.042;13.804;2023-06-19T17:42:11;30.20;99.90
19033;DHT22;9649;51.042;13.804;2023-06-19T17:47:16;29.80;1.00
19033;DHT22;9649;51.042;13.804;2023-06-19T17:52:20;29.60;1.00
19033;DHT22;9649;51.042;13.804;2023-06-19T17:57:23;29.40;1.00
19033;DHT22;9649;51.042;13.804;2023-06-19T18:02:27;29.30;1.00
19033;DHT22;9649;51.042;13.804;2023-06-19T18:07:36;29.10;1.00
19033;DHT22;9649;51.042;13.804;2023-06-19T18:12:41;28.90;1.00
19033;DHT22;9649;51.042;13.804;2023-06-19T18:17:45;28.60;1.00
19033;DHT22;9649;51.042;13.804;2023-06-19T18:22:49;28.40;1.00
19033;DHT22;9649;51.042;13.804;2023-06-19T18:27:53;28.30;1.00
19033;DHT22;9649;51.042;13.804;2023-06-19T18:32:57;28.00;21.60
19033;DHT22;9649;51.042;13.804;2023-06-19T18:38:02;27.70;99.90
19033;DHT22;9649;51.042;13.804;2023-06-19T20:23:27;24.70;1.00
19033;DHT22;9649;51.042;13.804;2023-06-19T20:34:46;24.50;99.90
19033;DHT22;9649;51.042;13.804;2023-06-19T20:46:04;24.30;99.90
19033;DHT22;9649;51.042;13.804;2023-06-19T20:51:09;24.20;99.90
19033;DHT22;9649;51.042;13.804;2023-06-19T20:56:13;24.10;1.00
19033;DHT22;9649;51.042;13.804;2023-06-19T21:01:16;24.00;1.00
19033;DHT22;9649;51.042;13.804;2023-06-19T21:06:23;24.00;1.00
19033;DHT22;9649;51.042;13.804;2023-06-19T21:11:28;23.90;1.00
19033;DHT22;9649;51.042;13.804;2023-06-19T21:16:31;23.90;1.00
19033;DHT22;9649;51.042;13.804;2023-06-19T21:21:35;23.90;1.00
19033;DHT22;9649;51.042;13.804;2023-06-19T21:26:39;23.80;1.00
19033;DHT22;9649;51.042;13.804;2023-06-19T21:31:42;23.50;1.00
19033;DHT22;9649;51.042;13.804;2023-06-19T21:36:45;23.50;1.00
19033;DHT22;9649;51.042;13.804;2023-06-19T21:41:49;23.50;1.00
19033;DHT22;9649;51.042;13.804;2023-06-19T21:46:51;23.30;1.00
19033;DHT22;9649;51.042;13.804;2023-06-19T21:51:54;23.10;1.00
19033;DHT22;9649;51.042;13.804;2023-06-19T21:56:58;23.10;1.00
19033;DHT22;9649;51.042;13.804;2023-06-19T22:02:01;23.20;99.90
19033;DHT22;9649;51.042;13.804;2023-06-19T22:07:04;23.20;99.90
19033;DHT22;9649;51.042;13.804;2023-06-19T22:12:09;23.10;99.90
19033;DHT22;9649;51.042;13.804;2023-06-19T22:17:12;23.00;99.90
19033;DHT22;9649;51.042;13.804;2023-06-19T22:22:15;22.90;1.00
19033;DHT22;9649;51.042;13.804;2023-06-19T22:27:19;22.80;1.00
19033;DHT22;9649;51.042;13.804;2023-06-19T22:32:22;22.80;1.00
19033;DHT22;9649;51.042;13.804;2023-06-19T22:37:24;22.60;99.90
19033;DHT22;9649;51.042;13.804;2023-06-19T22:42:28;22.50;1.00
19033;DHT22;9649;51.042;13.804;2023-06-19T22:47:31;22.50;1.00
19033;DHT22;9649;51.042;13.804;2023-06-19T22:52:34;22.40;1.00
19033;DHT22;9649;51.042;13.804;2023-06-19T22:57:38;22.20;1.00
19033;DHT22;9649;51.042;13.804;2023-06-19T23:02:42;22.10;1.00
19033;DHT22;9649;51.042;13.804;2023-06-19T23:07:46;22.00;1.00
19033;DHT22;9649;51.042;13.804;2023-06-19T23:12:50;22.00;1.00
19033;DHT22;9649;51.042;13.804;2023-06-19T23:17:53;21.90;1.00
19033;DHT22;9649;51.042;13.804;2023-06-19T23:22:55;21.90;1.00
19033;DHT22;9649;51.042;13.804;2023-06-19T23:28:00;21.80;1.00
19033;DHT22;9649;51.042;13.804;2023-06-19T23:33:03;21.60;99.90
19033;DHT22;9649;51.042;13.804;2023-06-19T23:38:06;21.50;99.90
19033;DHT22;9649;51.042;13.804;2023-06-19T23:43:10;21.40;1.00
19033;DHT22;9649;51.042;13.804;2023-06-19T23:48:13;21.30;1.00
19033;DHT22;9649;51.042;13.804;2023-06-19T23:53:15;21.10;1.00
19033;DHT22;9649;51.042;13.804;2023-06-19T23:58:19;21.10;1.00
